Sweeney Granite Mountains, California Weather observations

Data are for 10 minute period ending at time listed.
 Day   Time   Solar   Ave.   Ave.  Ave.  Vector  Max.   Baro.   Total    
  of    of     Rad.   Air    Rel.  Wind   Wind   Wind  Press.  Precip.   
Year   Day            Temp.  Hum.  Speed  Dir.   Gust                    
2016   (PST)  Kw/m2    F      %     mph   deg.    mph    mb.     in.     
-------------------------------------------------------------------------
 120   16:10   0.26   65.7    22    8.6   274    15.6   864.6    0.00 
 120   16:20   0.40   66.3    21    9.7   280    19.1   864.5    0.00 
 120   16:30   0.30   66.5    21    7.7   267    17.3   864.3    0.00 
 120   16:40   0.39   67.8    20    6.6   262    18.8   864.1    0.00 
 120   16:50   0.30   67.6    19    7.0   249    17.4   864.0    0.00 
 120   17:00   0.25   66.8    19   12.3   268    24.5   864.0    0.00 
 120   17:10   0.20   66.5    19    9.9   263    16.2   863.8    0.00 
 120   17:20   0.16   66.5    19    7.9   270    15.3   863.7    0.00 
 120   17:30   0.11   66.3    20    7.2   273    15.1   863.7    0.00 
 120   17:40   0.03   64.7    22    6.0   258    12.6   863.6    0.00 
 120   17:50   0.03   64.3    22    8.6   269    16.7   863.6    0.00 
 120   18:00   0.02   64.0    22    8.9   280    15.9   863.5    0.00 
 120   18:10   0.01   63.8    21    7.2   266    19.6   863.5    0.00 
 120   18:20   0.01   63.4    22    9.1   277    16.5   863.5    0.00 
 120   18:30   0.00   62.9    22    9.6   284    15.6   863.5    0.00 
 120   18:40   0.00   62.3    23   11.1   291    16.1   863.5    0.00 
 120   18:50   0.00   61.8    25   14.7   284    23.4   863.5    0.00 
 120   19:00   0.00   61.6    26   13.9   271    23.9   863.5    0.00 
 120   19:10   0.00   61.2    27   13.9   280    22.9   863.6    0.00 
 120   19:20   0.00   60.9    27   11.2   277    20.1   863.6    0.00 
 120   19:30   0.00   60.5    28   14.6   288    25.3   863.5    0.00 
 120   19:40   0.00   60.2    28   17.6   284    25.6   863.4    0.00 
 120   19:50   0.00   59.8    28   17.4   286    25.1   863.2    0.00 
 120   20:00   0.00   59.4    29   19.8   292    29.5   863.1    0.00 
 120   20:10   0.00   59.1    29   19.8   293    28.2   863.0    0.00 
 120   20:20   0.00   58.8    30   20.6   291    30.0   863.0    0.00 
 120   20:30   0.00   58.5    30   19.3   292    27.0   863.0    0.00 
 120   20:40   0.00   58.3    31   21.6   288    33.0   863.0    0.00 
 120   20:50   0.00   58.0    31   23.3   289    32.4   862.9    0.00 
 120   21:00   0.00   57.8    31   20.6   294    31.5   862.9    0.00 
 120   21:10   0.00   57.8    30   19.3   301    30.9   862.7    0.00 
 120   21:20   0.00   57.7    30   16.9   298    28.6   862.6    0.00 
 120   21:30   0.00   57.5    31   21.3   289    35.9   862.3    0.00 
 120   21:40   0.00   57.0    31   28.3   285    39.0   862.0    0.00 
 120   21:50   0.00   56.7    31   28.2   284    37.7   862.1    0.00 
 120   22:00   0.00   56.4    31   26.7   286    36.8   862.1    0.00 
 120   22:10   0.00   56.3    31   25.8   296    37.1   862.2    0.00 
 120   22:20   0.00   56.1    31   19.8   302    30.2   862.2    0.00 
 120   22:30   0.00   55.9    32   18.8   299    33.2   862.2    0.00 
 120   22:40   0.00   55.7    32   15.7   292    23.9   862.1    0.00 
 120   22:50   0.00   55.6    33   16.3   295    29.5   861.9    0.00 
 120   23:00   0.00   55.6    34   16.8   297    30.9   861.8    0.00 
 120   23:10   0.00   55.5    35   15.8   293    26.4   861.9    0.00 
 120   23:20   0.00   55.5    36   14.1   272    25.6   861.7    0.00 
 120   23:30   0.00   55.4    38   10.9   271    23.0   861.7    0.00 
 120   23:40   0.00   55.1    39   13.4   283    23.5   861.5    0.00 
 120   23:50   0.00   55.2    39   10.8   272    19.3   861.4    0.00 
 121    0:00   0.00   55.1    40   11.8   277    25.1   861.2    0.00 
 121    0:10   0.00   54.9    41   13.8   276    28.4   861.0    0.00 
 121    0:20   0.00   54.8    42   18.2   278    35.9   860.8    0.00 
 121    0:30   0.00   54.6    43   16.2   277    27.3   860.6    0.00 
 121    0:40   0.00   54.6    43   14.0   289    23.5   860.6    0.00 
 121    0:50   0.00   54.6    42   12.9   289    23.5   860.5    0.00 
 121    1:00   0.00   54.5    42    9.9   275    21.0   860.5    0.00 
 121    1:10   0.00   54.8    42   17.1   276    28.9   860.2    0.00 
 121    1:20   0.00   54.5    42   15.3   294    28.4   860.0    0.00 
 121    1:30   0.00   54.4    42   15.2   285    26.2   859.9    0.00 
 121    1:40   0.00   54.3    43   11.8   285    25.4   859.9    0.00 
 121    1:50   0.00   54.3    43    8.6   287    21.4   859.9    0.00 
 121    2:00   0.00   54.1    44   11.6   288    22.4   859.9    0.00 
 121    2:10   0.00   54.0    45   12.1   293    23.2   859.9    0.00 
 121    2:20   0.00   53.7    46    8.3   287    17.3   860.0    0.00 
 121    2:30   0.00   53.5    46   12.6   294    25.9   859.8    0.00 
 121    2:40   0.00   53.4    45   15.1   302    27.3   859.7    0.00 
 121    2:50   0.00   53.3    45   19.5   297    31.2   859.6    0.00 
 121    3:00   0.00   52.9    46   21.4   304    39.5   859.6    0.00 
 121    3:10   0.00   51.5    53   21.5   291    38.4   859.7    0.00 
 121    3:20   0.00   49.8    60   21.1   302    55.0   859.6    0.00 
 121    3:30   0.00   49.2    64   21.5   306    40.3   859.7    0.00 
 121    3:40   0.00   48.7    67   15.8   310    33.5   859.6    0.00 
 121    3:50   0.00   48.8    67   16.8   324    32.2   859.6    0.00 
 121    4:00   0.00   48.7    67   16.7   316    29.2   859.4    0.00 
 121    4:10   0.00   49.0    65   16.9   326    31.6   859.4    0.00 
 121    4:20   0.00   49.0    65   20.9   291    37.6   859.5    0.00 
 121    4:30   0.00   49.1    65   15.6   308    33.4   859.5    0.00 
 121    4:40   0.00   49.0    65   17.1   305    33.2   859.4    0.00 
 121    4:50   0.00   48.9    64   18.4   308    29.6   859.4    0.00 
 121    5:00   0.00   48.7    65   16.5   316    27.0   859.4    0.00 
 121    5:10   0.00   49.3    62   16.1   321    27.9   859.3    0.00 
 121    5:20   0.01   49.5    60   17.6   322    26.1   859.3    0.00 
 121    5:30   0.01   49.5    61   18.6   315    30.3   859.3    0.00 
 121    5:40   0.01   49.4    63   18.6   317    28.1   859.3    0.00 
 121    5:50   0.03   48.1    68   21.5   314    29.9   859.6    0.00 
 121    6:00   0.13   46.9    74   19.8   322    34.4   859.8    0.00 
 121    6:10   0.18   46.6    76   21.8   315    32.7   860.0    0.00 
 121    6:20   0.15   46.1    77   21.4   316    36.9   860.6    0.00 
 121    6:30   0.17   46.2    72   21.3   313    34.0   860.6    0.00 
 121    6:40   0.11   46.1    69   19.2   316    35.8   860.5    0.00 
 121    6:50   0.28   46.3    68   14.7   328    32.7   860.6    0.00 
 121    7:00   0.38   46.8    70   15.8   318    27.4   860.7    0.00 
 121    7:10   0.56   47.2    69   16.3   321    28.4   860.8    0.00 
 121    7:20   0.47   47.9    67   16.1   317    27.3   860.8    0.00 
 121    7:30   0.16   47.1    67   16.2   306    27.5   860.7    0.00 
 121    7:40   0.12   46.3    70   18.4   325    28.8   860.6    0.00 
 121    7:50   0.11   45.9    73   19.2   310    30.2   860.6    0.00 
 121    8:00   0.06   45.8    72   15.8   315    26.1   860.8    0.01 
 121    8:10   0.06   46.0    72   11.8   318    20.6   861.0    0.01 
 121    8:20   0.09   46.3    71    8.2   332    19.2   861.0    0.01 
 121    8:30   0.16   46.8    72    5.8   326    13.0   860.8    0.00 
 121    8:40   0.20   46.5    76    7.0   342    12.9   860.9    0.00 
 121    8:50   0.23   46.2    77    7.2   345    16.5   860.8    0.00 
 121    9:00   0.29   46.7    77    4.6   346    14.4   860.7    0.00 
 121    9:10   0.34   47.4    76    8.2   318    24.2   860.7    0.00 
 121    9:20   0.33   46.8    77    9.7   293    23.5   860.7    0.00 
 121    9:30   0.34   46.7    75   11.5   345    29.1   860.8    0.00 
 121    9:40   0.45   47.5    73    9.8   310    18.0   860.8    0.00 
 121    9:50   0.51   47.6    73   12.9   317    30.7   860.7    0.00 
 121   10:00   0.41   47.9    72   11.9   327    24.0   860.7    0.00 
 121   10:10   0.33   47.7    71   13.4   306    26.7   860.8    0.00 
 121   10:20   0.33   46.8    74   12.5   322    24.9   860.8    0.00 
 121   10:30   0.38   47.4    75   14.4   321    24.2   860.7    0.00 
 121   10:40   0.33   47.2    76   16.1   301    28.4   860.6    0.00 
 121   10:50   0.38   47.0    74   14.8   311    25.1   860.7    0.00 
 121   11:00   0.38   47.5    71   11.8   317    19.1   860.8    0.00 
 121   11:10   0.37   48.3    70    8.2   283    17.2   860.6    0.00 
 121   11:20   0.58   49.6    67    9.1   285    21.9   860.5    0.00 
 121   11:30   0.58   50.2    66   12.5   297    21.5   860.6    0.00 
 121   11:40   0.45   49.8    68    6.4    16    13.0   860.8    0.00 
 121   11:50   0.62   50.6    67    8.5   349    16.7   860.9    0.00 
 121   12:00   0.44   49.1    71    8.5    59    16.7   861.0    0.00 
 121   12:10   0.48   49.4    69    8.7    69    15.8   861.0    0.00 
 121   12:20   0.56   50.4    65    7.4    58    15.6   861.1    0.00 
 121   12:30   0.43   51.2    64    4.9     3    15.0   861.2    0.00 
 121   12:40   0.29   50.3    68   10.7   314    16.7   861.2    0.00 
 121   12:50   0.28   48.8    76    8.9   325    18.0   861.3    0.00 
 121   13:00   0.24   47.2    84    9.2   307    18.1   861.2    0.04 
 121   13:10   0.31   47.4    83   12.9   310    20.8   861.0    0.01 
 121   13:20   0.44   47.6    84   16.6   308    22.9   860.8    0.00 
 121   13:30   0.40   47.8    78   15.8   318    24.4   860.8    0.00 
 121   13:40   0.36   47.8    76   16.4   314    24.5   860.9    0.00 
 121   13:50   0.34   48.1    76   16.3   312    22.7   861.0    0.00 
 121   14:00   0.33   48.1    77   16.1   307    26.0   861.0    0.00 
 121   14:10   0.44   48.6    74   15.5   318    21.3   861.0    0.00 
 121   14:20   0.48   49.3    72   14.0   318    20.4   860.9    0.00 
 121   14:30   0.74   50.4    68   13.9   310    22.0   860.9    0.00 
 121   14:40   0.87   51.1    65   12.2   305    22.4   860.8    0.00 
 121   14:50   0.90   52.2    63   10.2   317    21.1   860.9    0.00 
 121   15:00   0.78   52.0    64    8.5   338    18.7   861.0    0.00 
 121   15:10   0.75   52.6    63    8.1   293    15.4   861.1    0.00 
 121   15:20   0.65   52.6    64    9.6   321    22.3   861.1    0.00 
 121   15:30   0.67   52.4    64   10.3   301    19.6   861.1    0.00 
 121   15:40   0.45   51.5    66    7.4     5    16.0   861.3    0.00 
 121   15:50   0.53   51.5    65    9.4    75    20.2   861.3    0.00 
 121   16:00   0.56   52.9    62    6.8    14    17.4   861.4    0.00 

Return to Sweeney Granite Mountains graphs page.


Western Regional Climate Center,wrcc@dri.edu